Hailey, ID (83333)

3:55 PM MDT on July 26, 2016 (GMT -0600)
East Fork | | Change Station

Elev 5630 ft 43.60 °N, 114.33 °W | Updated 8 seconds ago

Partly Cloudy
Partly Cloudy
89.1 °F
Feels Like 85 °F
N
2.0
Wind Variable Wind from NW
Gusts 11.0 mph

Today
High -- | Low -- °F
--% Chance of Precip.
Yesterday
High -- | Low -- °F
Precip. -- in
Pressure 30.13 in
Visibility 10.0 miles
Clouds Few 15000 ft
Heat Index 85 °F
Dew Point 30 °F
Humidity 12%
Rainfall 0.00 in
Snow Depth Not available.
6:20 AM 9:06 PM
Waning Gibbous, 50% visible
METAR KSUN 262047Z 24008KT 10SM FEW150 31/05 A3013
Pressure 30.13 in
Visibility 10.0 miles
Clouds Few 15000 ft
Heat Index 85 °F
Dew Point 30 °F
Humidity 12%
Rainfall 0.00 in
Snow Depth Not available.
6:20 AM 9:06 PM
Waning Gibbous, 50% visible
METAR KSUN 262047Z 24008KT 10SM FEW150 31/05 A3013

10-Day Weather Forecast

Almanac

Astronomy

Jul. 26, 2016 Rise Set
Actual Time
Civil Twilight
Nautical Twilight
Astronomical Twilight
Moon
Length of Visible Light
Length of Day
Tomorrow will be .
, % of the Moon is Illuminated

Today's Extremes

State Highs State Lows

Community

WunderPhotos

Upload Photos

1,927,702 photos uploaded!

WunderBlog® & News

Nearby

Air Quality

  Air Quality AQ Index Pollutant
Not available.

Snow Depth

Station Depth Elevation

Earthquake Activity

City Distance Mag. Time & Date
Minimum magnitude displayed is 2.5.

Coastal Water Temperatures

Place Temperature

Stations

Nearby Weather Stations

Station Location Temp. Windchill Dew Point Humidity Wind Precip. Elev Updated Type
                   

Watches & Warnings

There are currently no watches in effect.